createdAt,value
2022-09-20T00:01:37.099Z,99949.53
2022-09-20T00:03:09.992Z,99950.50
2022-09-20T00:04:42.106Z,99949.72
2022-09-20T00:06:21.140Z,99947.00
2022-09-20T00:07:53.160Z,99957.59
2022-09-20T00:09:25.093Z,99952.44
2022-09-20T00:11:05.061Z,99955.19
2022-09-20T00:12:37.004Z,99956.03
2022-09-20T00:14:09.132Z,99957.88
2022-09-20T00:15:45.723Z,99964.75
2022-09-20T00:17:17.679Z,99961.41
2022-09-20T00:18:53.481Z,99956.28
2022-09-20T00:20:26.038Z,99953.16
2022-09-20T00:21:58.016Z,99960.19
2022-09-20T00:23:30.516Z,99965.44
2022-09-20T00:25:02.491Z,99954.28
2022-09-20T00:26:36.818Z,99967.34
2022-09-20T00:28:09.374Z,99964.91
2022-09-20T00:29:41.447Z,99961.63
2022-09-20T00:31:14.089Z,99965.16
2022-09-20T00:32:45.994Z,99961.97
2022-09-20T00:34:36.714Z,99958.66
2022-09-20T00:36:08.780Z,99956.22
2022-09-20T00:37:42.391Z,99956.28
2022-09-20T00:39:15.535Z,99954.66
2022-09-20T00:40:47.558Z,99946.88
2022-09-20T00:42:19.542Z,99949.50
2022-09-20T00:43:51.763Z,99951.31
2022-09-20T00:45:26.242Z,99949.50
2022-09-20T00:47:07.016Z,99963.28
2022-09-20T00:48:38.948Z,99953.94
2022-09-20T00:50:42.746Z,99953.81
2022-09-20T00:52:16.059Z,99960.88
2022-09-20T00:53:49.679Z,99959.16
2022-09-20T00:55:22.239Z,99963.53
2022-09-20T00:56:54.380Z,99954.09
2022-09-20T00:58:28.169Z,99960.28
2022-09-20T01:00:00.177Z,99955.34
2022-09-20T01:01:32.708Z,99957.16
2022-09-20T01:03:08.179Z,99959.84
2022-09-20T01:04:42.382Z,99959.84
2022-09-20T01:06:16.048Z,99954.66
2022-09-20T01:07:50.068Z,99950.34
2022-09-20T01:09:22.198Z,99954.75
2022-09-20T01:10:54.300Z,99950.50
2022-09-20T01:12:34.823Z,99953.88
2022-09-20T01:14:06.804Z,99953.09
2022-09-20T01:15:40.966Z,99952.13
2022-09-20T01:17:13.229Z,99947.00
2022-09-20T01:18:45.620Z,99948.69
2022-09-20T01:20:29.894Z,99946.94
2022-09-20T01:22:05.226Z,99941.81
2022-09-20T01:24:14.618Z,99955.59
2022-09-20T01:26:26.916Z,99952.25
2022-09-20T01:27:59.188Z,99947.19
2022-09-20T01:29:54.780Z,99951.59
2022-09-20T01:31:29.597Z,99957.78
2022-09-20T01:33:22.193Z,99959.69
2022-09-20T01:34:55.788Z,99956.38
2022-09-20T01:36:35.395Z,99953.88
2022-09-20T01:38:17.999Z,99953.97
2022-09-20T01:40:14.717Z,99954.97
2022-09-20T01:41:53.241Z,99951.63
2022-09-20T01:44:18.579Z,99951.66
2022-09-20T01:45:50.671Z,99956.91
2022-09-20T01:47:44.052Z,99957.81
2022-09-20T01:49:31.279Z,99957.06
2022-09-20T01:51:28.062Z,99958.84
2022-09-20T01:53:49.303Z,99958.91
2022-09-20T01:55:58.988Z,99955.47
2022-09-20T01:57:36.952Z,99954.63
2022-09-20T01:59:30.863Z,99958.94
2022-09-20T02:01:06.218Z,99958.84
2022-09-20T02:03:19.687Z,99962.25
2022-09-20T02:04:57.486Z,99958.81
2022-09-20T02:06:41.348Z,99957.91
2022-09-20T02:08:22.455Z,99955.25
2022-09-20T02:10:09.617Z,99956.09
2022-09-20T02:12:14.498Z,99955.22
2022-09-20T02:13:59.343Z,99955.13
2022-09-20T02:15:49.618Z,99953.31
2022-09-20T02:17:50.951Z,99948.97
2022-09-20T02:19:50.480Z,99948.13
2022-09-20T02:21:39.341Z,99955.91
2022-09-20T02:23:36.128Z,99958.56
2022-09-20T02:25:21.614Z,99953.56
2022-09-20T02:27:09.205Z,99956.25
2022-09-20T02:28:50.311Z,99950.31
2022-09-20T02:30:25.700Z,99947.03
2022-09-20T02:32:03.446Z,99943.69
2022-09-20T02:33:41.679Z,99938.53
2022-09-20T02:35:13.885Z,99942.94
2022-09-20T02:37:16.201Z,99928.31
2022-09-20T02:39:16.036Z,99924.81
2022-09-20T02:41:23.459Z,99924.88
2022-09-20T02:43:16.938Z,99924.81
2022-09-20T02:45:08.702Z,99923.16
2022-09-20T02:46:52.650Z,99918.91
2022-09-20T02:48:25.765Z,99927.56
2022-09-20T02:50:35.800Z,99928.47
2022-09-20T02:52:15.674Z,99928.53
2022-09-20T02:54:05.731Z,99925.13
2022-09-20T02:56:34.824Z,99935.50
2022-09-20T02:58:09.640Z,99935.56
2022-09-20T02:59:51.002Z,99939.09
2022-09-20T03:01:25.535Z,99943.44
2022-09-20T03:03:45.300Z,99943.47
2022-09-20T03:06:03.735Z,99945.22
2022-09-20T03:07:53.523Z,99949.59
2022-09-20T03:09:45.532Z,99953.03
2022-09-20T03:11:37.720Z,99930.78
2022-09-20T03:13:43.310Z,99956.50
2022-09-20T03:15:39.635Z,99962.56
2022-09-20T03:17:23.518Z,99962.56
2022-09-20T03:19:17.766Z,99950.50
2022-09-20T03:21:23.282Z,99959.13
2022-09-20T03:23:19.745Z,99956.44
2022-09-20T03:24:54.781Z,99952.13
2022-09-20T03:26:42.941Z,99961.56
2022-09-20T03:28:43.054Z,99957.22
2022-09-20T03:30:33.735Z,99952.97
2022-09-20T03:32:26.665Z,99958.13
2022-09-20T03:34:08.613Z,99953.88
2022-09-20T03:36:17.634Z,99950.38
2022-09-20T03:38:01.538Z,99947.88
2022-09-20T03:40:09.997Z,99958.22
2022-09-20T03:41:54.030Z,99953.03
2022-09-20T03:43:26.176Z,99947.91
2022-09-20T03:45:22.791Z,99954.81
2022-09-20T03:47:10.673Z,99956.53
2022-09-20T03:49:29.595Z,99953.09
2022-09-20T03:51:07.429Z,99966.03
2022-09-20T03:52:58.253Z,99970.34
2022-09-20T03:55:06.630Z,99967.81
2022-09-20T03:56:56.303Z,99971.28
2022-09-20T03:58:35.395Z,99971.34
2022-09-20T04:00:23.836Z,99964.41
2022-09-20T04:02:29.730Z,99982.50
2022-09-20T04:04:04.849Z,99984.31
2022-09-20T04:05:57.628Z,99987.72
2022-09-20T04:07:41.715Z,99994.63
2022-09-20T04:09:35.417Z,99986.88
2022-09-20T04:12:58.734Z,99990.31
2022-09-20T04:14:38.666Z,99988.56
2022-09-20T04:16:22.849Z,99996.31
2022-09-20T04:18:04.143Z,100004.06
2022-09-20T04:20:00.068Z,100010.06
2022-09-20T04:21:40.538Z,100010.06
2022-09-20T04:23:50.497Z,100015.25
2022-09-20T04:25:31.397Z,100011.81
2022-09-20T04:27:14.616Z,100015.28
2022-09-20T04:28:56.300Z,100017.00
2022-09-20T04:30:32.304Z,100008.38
2022-09-20T04:32:33.426Z,100010.97
2022-09-20T04:34:12.738Z,100005.00
2022-09-20T04:36:29.954Z,100011.75
2022-09-20T04:38:05.807Z,100004.91
2022-09-20T04:39:48.635Z,100004.91
2022-09-20T04:41:42.070Z,100007.47
2022-09-20T04:43:17.668Z,100014.34
2022-09-20T04:45:08.578Z,100013.50
2022-09-20T04:47:06.347Z,100018.69
2022-09-20T04:49:15.859Z,100013.53
2022-09-20T04:50:56.909Z,100007.56
2022-09-20T04:53:01.256Z,100015.28
2022-09-20T04:54:55.257Z,100016.97
2022-09-20T04:56:41.869Z,100013.50
2022-09-20T04:58:39.535Z,100016.00
2022-09-20T05:00:21.246Z,100015.09
2022-09-20T05:02:29.039Z,100020.16
2022-09-20T05:04:25.839Z,100017.56
2022-09-20T05:05:57.828Z,100026.16
2022-09-20T05:07:51.914Z,100020.06
2022-09-20T05:09:48.929Z,100016.56
2022-09-20T05:11:51.877Z,100019.03
2022-09-20T05:13:54.750Z,100011.16
2022-09-20T05:15:40.062Z,100024.75
2022-09-20T05:17:19.675Z,100017.81
2022-09-20T05:19:07.767Z,100021.09
2022-09-20T05:21:21.205Z,100019.19
2022-09-20T05:23:00.824Z,100013.06
2022-09-20T05:25:00.634Z,100014.66
2022-09-20T05:26:57.477Z,100017.84
2022-09-20T05:29:10.912Z,100012.47
2022-09-20T05:30:47.305Z,100016.63
2022-09-20T05:33:06.062Z,100011.25
2022-09-20T05:35:04.431Z,100012.75
2022-09-20T05:36:39.585Z,100013.53
2022-09-20T05:41:00.813Z,100014.66
2022-09-20T05:42:47.456Z,100023.97
2022-09-20T05:44:37.597Z,100015.16
2022-09-20T05:46:22.856Z,100007.13
2022-09-20T05:48:00.082Z,100002.66
2022-09-20T05:49:38.194Z,100005.81
2022-09-20T05:51:28.612Z,99999.53
2022-09-20T05:53:06.680Z,99992.34
2022-09-20T05:55:02.271Z,99997.25
2022-09-20T05:56:53.204Z,99999.63
2022-09-20T05:58:45.791Z,100002.94
2022-09-20T06:00:18.019Z,100001.06
2022-09-20T06:02:04.125Z,100010.16
2022-09-20T06:04:00.589Z,100005.59
2022-09-20T06:06:10.000Z,100012.91
2022-09-20T06:08:00.856Z,100000.34
2022-09-20T06:10:08.060Z,100006.00
2022-09-20T06:12:02.034Z,100007.34
2022-09-20T06:13:43.843Z,100009.44
2022-09-20T06:15:22.131Z,100005.75
2022-09-20T06:17:02.917Z,100005.25
2022-09-20T06:18:50.658Z,100009.16
2022-09-20T06:20:39.924Z,100004.56
2022-09-20T06:22:20.536Z,100005.06
2022-09-20T06:23:57.760Z,100013.47
2022-09-20T06:25:35.148Z,100013.28
2022-09-20T06:27:13.791Z,100018.06
2022-09-20T06:28:54.211Z,100019.56
2022-09-20T06:30:30.619Z,100014.81
2022-09-20T06:32:03.035Z,100012.06
2022-09-20T06:33:41.258Z,100006.56
2022-09-20T06:35:13.334Z,100009.03
2022-09-20T06:37:09.822Z,100009.75
2022-09-20T06:39:17.866Z,100023.44
2022-09-20T06:41:20.498Z,100017.31
2022-09-20T06:42:54.356Z,100027.63
2022-09-20T06:44:26.500Z,100022.41
2022-09-20T06:45:59.299Z,100020.59
2022-09-20T06:47:34.665Z,100025.69
2022-09-20T06:49:09.879Z,100028.09
2022-09-20T06:50:46.048Z,100018.25
2022-09-20T06:52:22.897Z,100009.31
2022-09-20T06:53:56.199Z,100014.28
2022-09-20T06:55:31.427Z,100012.44
2022-09-20T06:57:05.765Z,100007.97
2022-09-20T06:58:38.088Z,100020.84
2022-09-20T07:00:14.004Z,100018.03
2022-09-20T07:01:46.106Z,100017.84
2022-09-20T07:03:20.307Z,100009.00
2022-09-20T07:04:58.377Z,100016.63
2022-09-20T07:06:30.555Z,100007.81
2022-09-20T07:08:02.747Z,100018.88
2022-09-20T07:09:35.021Z,100023.13
2022-09-20T07:11:10.567Z,100013.47
2022-09-20T07:12:43.309Z,100027.44
2022-09-20T07:15:49.573Z,100017.63
2022-09-20T07:17:22.760Z,100021.66
2022-09-20T07:18:55.205Z,100032.84
2022-09-20T07:20:28.242Z,100031.88
2022-09-20T07:22:00.561Z,100037.88
2022-09-20T07:23:37.608Z,100030.63
2022-09-20T07:25:09.942Z,100036.69
2022-09-20T07:26:56.545Z,100038.78
2022-09-20T07:28:29.693Z,100040.50
2022-09-20T07:30:02.967Z,100044.56
2022-09-20T07:31:35.460Z,100040.84
2022-09-20T07:33:10.375Z,100051.03
2022-09-20T07:34:42.431Z,100038.75
2022-09-20T07:36:14.772Z,100038.41
2022-09-20T07:37:47.394Z,100047.34
2022-09-20T07:39:19.886Z,100031.13
2022-09-20T07:41:00.877Z,100035.97
2022-09-20T07:42:32.867Z,100033.31
2022-09-20T07:44:23.507Z,100029.59
2022-09-20T07:45:56.403Z,100039.66
2022-09-20T07:47:37.048Z,100025.59
2022-09-20T07:49:09.343Z,100034.19
2022-09-20T07:50:41.359Z,100040.09
2022-09-20T07:52:14.979Z,100028.94
2022-09-20T07:53:47.024Z,100032.25
2022-09-20T07:55:19.147Z,100030.47
2022-09-20T07:56:51.292Z,100022.94
2022-09-20T07:58:23.549Z,100035.03
2022-09-20T07:59:55.911Z,100023.34
2022-09-20T08:01:28.135Z,100031.97
2022-09-20T08:03:00.765Z,100023.06
2022-09-20T08:04:32.741Z,100011.44
2022-09-20T08:06:08.791Z,100012.75
2022-09-20T08:07:41.324Z,100017.97
2022-09-20T08:09:14.197Z,100015.63
2022-09-20T08:10:47.009Z,100017.25
2022-09-20T08:14:21.065Z,100018.34
2022-09-20T08:16:02.716Z,100009.16
2022-09-20T08:17:34.993Z,100013.66
2022-09-20T08:19:07.415Z,100013.22
2022-09-20T08:20:40.085Z,100019.94
2022-09-20T08:22:13.041Z,100016.41
2022-09-20T08:23:48.807Z,100012.69
2022-09-20T08:25:21.182Z,100005.09
2022-09-20T08:26:53.569Z,100015.44
2022-09-20T08:28:26.013Z,100015.38
2022-09-20T08:29:58.465Z,100014.69
2022-09-20T08:31:35.121Z,100014.06
2022-09-20T08:33:07.436Z,100013.22
2022-09-20T08:34:41.053Z,100012.34
2022-09-20T08:36:18.071Z,100002.53
2022-09-20T08:37:55.303Z,100000.72
2022-09-20T08:41:35.328Z,99990.78
2022-09-20T08:43:09.717Z,99990.88
2022-09-20T08:45:00.716Z,99993.34
2022-09-20T08:46:36.044Z,99992.59
2022-09-20T08:48:14.443Z,99985.41
2022-09-20T08:49:46.697Z,99997.94
2022-09-20T08:51:23.321Z,99986.38
2022-09-20T08:53:01.287Z,99985.53
2022-09-20T08:54:35.478Z,99989.78
2022-09-20T08:56:09.623Z,99979.38
2022-09-20T08:57:42.061Z,99984.59
2022-09-20T08:59:20.600Z,99982.50
2022-09-20T09:00:53.434Z,99970.47
2022-09-20T09:02:26.014Z,99988.28
2022-09-20T09:04:17.624Z,99987.38
2022-09-20T09:05:56.290Z,99983.66
2022-09-20T09:07:29.531Z,99982.00
2022-09-20T09:09:02.409Z,99981.88
2022-09-20T09:10:45.350Z,99989.53
2022-09-20T09:12:27.767Z,99984.28
2022-09-20T09:14:05.017Z,99981.03
2022-09-20T09:15:39.147Z,99974.66
2022-09-20T09:17:12.772Z,99961.66
2022-09-20T09:18:46.745Z,99964.84
2022-09-20T09:20:24.621Z,99970.25
2022-09-20T09:21:59.147Z,99954.91
2022-09-20T09:23:41.584Z,99966.59
2022-09-20T09:25:34.321Z,99966.59
2022-09-20T09:27:19.205Z,99963.38
2022-09-20T09:29:17.957Z,99964.31
2022-09-20T09:30:50.432Z,99965.69
2022-09-20T09:32:28.952Z,99959.63
2022-09-20T09:34:01.558Z,99964.19
2022-09-20T09:35:36.870Z,99961.53
2022-09-20T09:37:28.322Z,99951.91
2022-09-20T09:39:38.572Z,99954.59
2022-09-20T09:41:36.245Z,99949.44
2022-09-20T09:43:23.799Z,99943.94
2022-09-20T09:45:24.583Z,99933.81
2022-09-20T09:46:58.104Z,99934.09
2022-09-20T09:48:31.648Z,99941.09
2022-09-20T09:50:09.483Z,99931.44
2022-09-20T09:51:44.512Z,99940.84
2022-09-20T09:53:22.431Z,99936.19
2022-09-20T09:55:03.081Z,99941.03
2022-09-20T09:56:57.775Z,99954.44
2022-09-20T09:58:55.874Z,99954.81
2022-09-20T10:00:29.354Z,99950.72
2022-09-20T10:02:23.995Z,99950.72
2022-09-20T10:04:10.171Z,99939.69
2022-09-20T10:05:48.134Z,99944.13
2022-09-20T10:07:41.917Z,99936.22
2022-09-20T10:09:22.163Z,99936.28
2022-09-20T10:11:12.695Z,99933.78
2022-09-20T10:13:40.755Z,99930.88
2022-09-20T10:15:49.341Z,99940.53
2022-09-20T10:17:35.316Z,99933.88
2022-09-20T10:19:07.525Z,99939.97
2022-09-20T10:22:34.953Z,99932.81
2022-09-20T10:24:55.672Z,99925.50
2022-09-20T10:26:27.847Z,99934.28
2022-09-20T10:28:18.815Z,99930.22
2022-09-20T10:30:00.925Z,99928.75
2022-09-20T10:31:43.303Z,99931.44
2022-09-20T10:33:46.557Z,99925.06
2022-09-20T10:35:56.360Z,99926.97
2022-09-20T10:37:49.662Z,99920.59
2022-09-20T10:39:36.734Z,99916.84
2022-09-20T10:41:48.692Z,99916.97
2022-09-20T10:43:35.606Z,99926.66
2022-09-20T10:46:14.475Z,99925.91
2022-09-20T10:48:05.013Z,99926.19
2022-09-20T10:49:57.817Z,99924.34
2022-09-20T10:52:21.671Z,99929.53
2022-09-20T10:54:32.792Z,99927.53
2022-09-20T10:56:28.157Z,99921.72
2022-09-20T10:58:38.341Z,99920.81
2022-09-20T11:00:25.570Z,99918.03
2022-09-20T11:02:22.131Z,99922.38
2022-09-20T11:04:12.649Z,99916.00
2022-09-20T11:06:15.992Z,99914.16
2022-09-20T11:07:50.943Z,99910.53
2022-09-20T11:09:30.184Z,99918.78
2022-09-20T11:11:06.926Z,99905.16
2022-09-20T11:13:20.567Z,99904.72
2022-09-20T11:15:06.028Z,99907.09
2022-09-20T11:16:46.666Z,99923.00
2022-09-20T11:18:51.116Z,99908.09
2022-09-20T11:20:28.156Z,99914.28
2022-09-20T11:22:10.674Z,99915.38
2022-09-20T11:24:23.769Z,99909.25
2022-09-20T11:25:59.911Z,99913.06
2022-09-20T11:27:38.603Z,99900.88
2022-09-20T11:29:13.598Z,99911.53
2022-09-20T11:31:12.958Z,99896.31
2022-09-20T11:33:01.488Z,99895.38
2022-09-20T11:34:38.531Z,99896.13
2022-09-20T11:36:17.204Z,99888.91
2022-09-20T11:38:38.979Z,99898.13
2022-09-20T11:40:28.411Z,99887.59
2022-09-20T11:42:02.194Z,99887.19
2022-09-20T11:43:35.772Z,99890.81
2022-09-20T11:45:12.428Z,99891.50
2022-09-20T11:46:50.918Z,99889.91
2022-09-20T11:48:46.572Z,99888.81
2022-09-20T11:50:24.503Z,99890.66
2022-09-20T11:52:05.796Z,99896.50
2022-09-20T11:53:52.670Z,99892.91
2022-09-20T11:55:44.235Z,99885.19
2022-09-20T11:57:17.739Z,99887.81
2022-09-20T11:59:04.657Z,99883.00
2022-09-20T12:00:41.770Z,99878.22
2022-09-20T12:02:52.686Z,99868.22
2022-09-20T12:04:32.919Z,99881.56
2022-09-20T12:06:09.208Z,99869.31
2022-09-20T12:07:44.142Z,99873.00
2022-09-20T12:09:37.418Z,99871.66
2022-09-20T12:11:12.649Z,99872.50
2022-09-20T12:12:47.510Z,99880.63
2022-09-20T12:14:24.339Z,99882.66
2022-09-20T12:16:17.929Z,99873.94
2022-09-20T12:17:53.065Z,99877.06
2022-09-20T12:19:32.860Z,99883.84
2022-09-20T12:21:16.637Z,99879.78
2022-09-20T12:22:48.792Z,99881.72
2022-09-20T12:24:22.999Z,99886.19
2022-09-20T12:26:06.813Z,99880.91
2022-09-20T12:27:38.893Z,99881.31
2022-09-20T12:29:34.567Z,99880.16
2022-09-20T12:31:34.023Z,99873.50
2022-09-20T12:33:20.125Z,99869.09
2022-09-20T12:34:52.965Z,99870.31
2022-09-20T12:36:26.538Z,99868.00
2022-09-20T12:38:26.188Z,99867.06
2022-09-20T12:39:58.821Z,99872.94
2022-09-20T12:41:51.834Z,99867.84
2022-09-20T12:43:24.482Z,99871.34
2022-09-20T12:45:04.609Z,99863.34
2022-09-20T12:46:43.581Z,99860.06
2022-09-20T12:48:20.205Z,99855.53
2022-09-20T12:50:12.801Z,99856.38
2022-09-20T12:52:10.564Z,99856.06
2022-09-20T12:55:30.810Z,99867.41
2022-09-20T12:57:19.511Z,99865.63
2022-09-20T12:58:53.964Z,99860.28
2022-09-20T13:00:39.320Z,99862.50
2022-09-20T13:02:43.231Z,99865.16
2022-09-20T13:04:41.427Z,99864.06
2022-09-20T13:06:16.969Z,99856.28
2022-09-20T13:07:56.988Z,99851.59
2022-09-20T13:09:29.507Z,99853.19
2022-09-20T13:11:14.137Z,99851.91
2022-09-20T13:12:50.438Z,99851.44
2022-09-20T13:14:29.288Z,99847.34
2022-09-20T13:16:02.625Z,99854.63
2022-09-20T13:17:35.131Z,99843.63
2022-09-20T13:19:08.588Z,99838.75
2022-09-20T13:20:42.005Z,99849.78
2022-09-20T13:22:38.559Z,99847.72
2022-09-20T13:24:16.931Z,99847.31
2022-09-20T13:25:50.695Z,99843.47
2022-09-20T13:29:30.049Z,99846.97
2022-09-20T13:31:38.121Z,99849.78
2022-09-20T13:33:36.470Z,99848.84
2022-09-20T13:35:11.562Z,99848.72
2022-09-20T13:36:43.842Z,99847.13
2022-09-20T13:38:22.813Z,99847.66
2022-09-20T13:39:55.578Z,99848.31
2022-09-20T13:41:29.615Z,99846.53
2022-09-20T13:43:30.746Z,99846.66
2022-09-20T13:45:04.630Z,99839.72
2022-09-20T13:46:44.530Z,99834.53
2022-09-20T13:48:17.775Z,99838.72
2022-09-20T13:49:51.142Z,99837.28
2022-09-20T13:51:27.022Z,99832.88
2022-09-20T13:53:01.129Z,99832.31
2022-09-20T13:54:34.301Z,99838.94
2022-09-20T13:56:12.104Z,99836.78
2022-09-20T13:57:45.061Z,99833.69
2022-09-20T13:59:19.684Z,99847.97
2022-09-20T14:00:55.358Z,99826.53
2022-09-20T14:04:09.841Z,99840.03
2022-09-20T14:05:47.631Z,99827.84
2022-09-20T14:07:20.386Z,99830.34
2022-09-20T14:08:52.882Z,99830.50
2022-09-20T14:10:37.605Z,99828.38
2022-09-20T14:12:12.085Z,99824.50
2022-09-20T14:13:46.814Z,99831.47
2022-09-20T14:15:19.466Z,99828.63
2022-09-20T14:16:53.717Z,99829.25
2022-09-20T14:18:26.206Z,99824.16
2022-09-20T14:19:58.734Z,99822.47
2022-09-20T14:21:33.827Z,99823.09
2022-09-20T14:23:06.327Z,99827.44
2022-09-20T14:24:38.666Z,99830.47
2022-09-20T14:26:16.884Z,99825.78
2022-09-20T14:27:49.213Z,99826.69
2022-09-20T14:29:40.556Z,99828.56
2022-09-20T14:31:31.339Z,99825.09
2022-09-20T14:33:05.727Z,99822.13
2022-09-20T14:34:39.642Z,99837.41
2022-09-20T14:36:17.233Z,99836.47
2022-09-20T14:39:29.805Z,99833.00
2022-09-20T14:41:02.132Z,99834.34
2022-09-20T14:42:37.497Z,99834.84
2022-09-20T14:44:32.729Z,99839.91
2022-09-20T14:46:07.536Z,99841.78
2022-09-20T14:47:54.103Z,99839.41
2022-09-20T14:49:26.370Z,99845.72
2022-09-20T14:51:16.177Z,99838.31
2022-09-20T14:53:22.988Z,99838.78
2022-09-20T14:55:02.890Z,99841.75
2022-09-20T14:56:38.781Z,99845.63
2022-09-20T14:58:13.911Z,99841.00
2022-09-20T14:59:46.414Z,99840.63
2022-09-20T15:01:26.297Z,99838.78
2022-09-20T15:03:05.661Z,99847.06
2022-09-20T15:04:40.385Z,99850.78
2022-09-20T15:06:13.620Z,99845.03
2022-09-20T15:07:46.013Z,99844.41
2022-09-20T15:09:19.277Z,99843.63
2022-09-20T15:10:51.974Z,99853.13
2022-09-20T15:14:04.881Z,99849.28
2022-09-20T15:15:37.252Z,99842.28
2022-09-20T15:17:21.131Z,99850.81
2022-09-20T15:18:53.386Z,99840.50
2022-09-20T15:20:25.963Z,99846.78
2022-09-20T15:21:58.269Z,99848.69
2022-09-20T15:23:30.583Z,99844.47
2022-09-20T15:25:03.463Z,99838.47
2022-09-20T15:26:35.770Z,99842.88
2022-09-20T15:28:15.674Z,99845.72
2022-09-20T15:29:47.920Z,99844.28
2022-09-20T15:31:20.523Z,99841.81
2022-09-20T15:32:53.570Z,99846.28
2022-09-20T15:34:25.864Z,99847.38
2022-09-20T15:35:58.935Z,99847.38
2022-09-20T15:37:31.249Z,99849.22
2022-09-20T15:39:05.475Z,99849.16
2022-09-20T15:40:48.373Z,99857.84
2022-09-20T15:42:22.129Z,99857.16
2022-09-20T15:43:55.495Z,99858.19
2022-09-20T15:45:28.503Z,99853.78
2022-09-20T15:47:00.674Z,99859.34
2022-09-20T15:48:33.058Z,99858.59
2022-09-20T15:50:08.849Z,99861.03
2022-09-20T15:51:41.276Z,99866.53
2022-09-20T15:53:13.419Z,99871.91
2022-09-20T15:54:46.541Z,99864.22
2022-09-20T15:56:29.925Z,99862.31
2022-09-20T15:58:02.178Z,99865.84
2022-09-20T15:59:34.844Z,99869.53
2022-09-20T16:01:08.792Z,99869.59
2022-09-20T16:02:41.227Z,99875.03
2022-09-20T16:04:19.691Z,99868.94
2022-09-20T16:06:04.607Z,99869.16
2022-09-20T16:07:37.407Z,99871.91
2022-09-20T16:09:10.219Z,99862.50
2022-09-20T16:10:42.597Z,99871.50
2022-09-20T16:12:15.455Z,99877.94
2022-09-20T16:13:53.133Z,99876.28
2022-09-20T16:15:25.519Z,99874.84
2022-09-20T16:16:58.143Z,99874.34
2022-09-20T16:18:49.205Z,99881.44
2022-09-20T16:20:22.668Z,99884.50
2022-09-20T16:21:59.197Z,99877.81
2022-09-20T16:23:31.659Z,99881.69
2022-09-20T16:25:06.424Z,99879.34
2022-09-20T16:26:39.089Z,99886.59
2022-09-20T16:28:12.999Z,99887.72
2022-09-20T16:29:45.676Z,99887.16
2022-09-20T16:31:41.342Z,99888.25
2022-09-20T16:33:13.822Z,99886.06
2022-09-20T16:34:48.384Z,99895.75
2022-09-20T16:36:26.756Z,99895.88
2022-09-20T16:38:02.725Z,99896.00
2022-09-20T16:39:35.533Z,99891.94
2022-09-20T16:41:08.865Z,99888.69
2022-09-20T16:42:41.954Z,99896.81
2022-09-20T16:44:14.822Z,99893.63
2022-09-20T16:45:48.757Z,99894.75
2022-09-20T16:47:22.797Z,99889.00
2022-09-20T16:48:56.848Z,99889.28
2022-09-20T16:50:29.471Z,99887.19
2022-09-20T16:52:01.923Z,99894.66
2022-09-20T16:53:34.241Z,99898.91
2022-09-20T16:55:06.950Z,99896.06
2022-09-20T16:56:47.524Z,99901.94
2022-09-20T16:58:20.310Z,99901.00
2022-09-20T16:59:56.175Z,99906.91
2022-09-20T17:01:29.395Z,99897.09
2022-09-20T17:03:01.681Z,99904.56
2022-09-20T17:04:34.026Z,99907.63
2022-09-20T17:06:07.046Z,99909.75
2022-09-20T17:07:39.510Z,99906.81
2022-09-20T17:09:12.690Z,99906.19
2022-09-20T17:10:45.680Z,99905.66
2022-09-20T17:12:22.296Z,99905.13
2022-09-20T17:13:55.414Z,99916.56
2022-09-20T17:15:27.851Z,99910.59
2022-09-20T17:17:00.666Z,99919.31
2022-09-20T17:18:33.903Z,99921.34
2022-09-20T17:20:08.210Z,99915.56
2022-09-20T17:21:45.561Z,99917.72
2022-09-20T17:23:18.329Z,99922.44
2022-09-20T17:24:50.550Z,99922.75
2022-09-20T17:26:33.701Z,99924.75
2022-09-20T17:28:06.011Z,99927.78
2022-09-20T17:29:38.088Z,99929.88
2022-09-20T17:31:12.809Z,99925.63
2022-09-20T17:32:48.494Z,99928.31
2022-09-20T17:34:22.149Z,99931.06
2022-09-20T17:35:54.516Z,99933.78
2022-09-20T17:37:26.792Z,99939.22
2022-09-20T17:39:04.143Z,99939.38
2022-09-20T17:40:37.026Z,99931.03
2022-09-20T17:42:09.422Z,99940.72
2022-09-20T17:43:42.720Z,99939.25
2022-09-20T17:45:15.203Z,99934.34
2022-09-20T17:46:50.296Z,99944.78
2022-09-20T17:48:23.773Z,99938.06
2022-09-20T17:49:55.940Z,99945.03
2022-09-20T17:51:33.784Z,99945.03
2022-09-20T17:53:06.312Z,99944.28
2022-09-20T17:54:38.539Z,99944.50
2022-09-20T17:56:13.209Z,99950.69
2022-09-20T17:57:45.513Z,99941.28
2022-09-20T17:59:19.124Z,99946.50
2022-09-20T18:00:51.593Z,99946.69
2022-09-20T18:02:24.224Z,99958.91
2022-09-20T18:03:59.237Z,99953.81
2022-09-20T18:05:31.695Z,99949.59
2022-09-20T18:07:04.649Z,99957.41
2022-09-20T18:08:37.287Z,99955.88
2022-09-20T18:10:13.154Z,99954.22
2022-09-20T18:11:49.506Z,99956.06
2022-09-20T18:13:21.848Z,99964.94
2022-09-20T18:14:54.490Z,99963.34
2022-09-20T18:16:26.731Z,99961.78
2022-09-20T18:17:59.538Z,99967.09
2022-09-20T18:19:34.934Z,99962.03
2022-09-20T18:21:21.753Z,99956.03
2022-09-20T18:22:54.080Z,99965.66
2022-09-20T18:24:26.823Z,99963.13
2022-09-20T18:26:24.960Z,99962.22
2022-09-20T18:27:56.966Z,99970.91
2022-09-20T18:31:06.958Z,99963.31
2022-09-20T18:32:42.289Z,99966.88
2022-09-20T18:34:19.747Z,99966.16
2022-09-20T18:35:51.724Z,99965.56
2022-09-20T18:37:23.880Z,99975.19
2022-09-20T18:38:57.908Z,99973.59
2022-09-20T18:40:30.577Z,99977.25
2022-09-20T18:42:03.663Z,99978.25
2022-09-20T18:43:35.869Z,99978.25
2022-09-20T18:45:08.711Z,99978.28
2022-09-20T18:46:42.008Z,99980.94
2022-09-20T18:48:14.279Z,99981.88
2022-09-20T18:49:46.247Z,99976.72
2022-09-20T18:51:18.439Z,99975.03
2022-09-20T18:52:51.507Z,99976.78
2022-09-20T18:54:23.806Z,99985.47
2022-09-20T18:55:56.545Z,99982.94
2022-09-20T18:57:29.003Z,99983.81
2022-09-20T18:59:26.950Z,99979.56
2022-09-20T19:01:22.099Z,99977.09
2022-09-20T19:03:04.733Z,99981.50
2022-09-20T19:05:04.648Z,99985.03
2022-09-20T19:06:44.894Z,99988.63
2022-09-20T19:08:34.629Z,99982.69
2022-09-20T19:10:10.249Z,99995.81
2022-09-20T19:11:47.895Z,99996.69
2022-09-20T19:13:28.961Z,99995.03
2022-09-20T19:15:16.063Z,99996.03
2022-09-20T19:16:50.923Z,99995.28
2022-09-20T19:18:44.954Z,99996.16
2022-09-20T19:20:49.324Z,100000.56
2022-09-20T19:22:31.435Z,99997.25
2022-09-20T19:24:40.053Z,99994.59
2022-09-20T19:26:23.589Z,99999.00
2022-09-20T19:27:55.983Z,100003.38
2022-09-20T19:29:29.122Z,100001.69
2022-09-20T19:31:01.809Z,100003.47
2022-09-20T19:32:35.244Z,100006.88
2022-09-20T19:35:50.353Z,100005.22
2022-09-20T19:37:52.910Z,100006.09
2022-09-20T19:39:50.294Z,100007.91
2022-09-20T19:41:49.550Z,100012.34
2022-09-20T19:43:50.509Z,100012.47
2022-09-20T19:45:39.461Z,100005.63
2022-09-20T19:47:30.405Z,100013.41
2022-09-20T19:49:15.236Z,100010.84
2022-09-20T19:50:51.271Z,100010.84
2022-09-20T19:52:24.236Z,100010.91
2022-09-20T19:53:57.064Z,100016.16
2022-09-20T19:55:29.496Z,100012.66
2022-09-20T19:57:02.277Z,100017.00
2022-09-20T19:58:35.651Z,100015.25
2022-09-20T20:00:09.540Z,100020.41
2022-09-20T20:01:42.105Z,100018.69
2022-09-20T20:03:15.629Z,100020.41
2022-09-20T20:04:47.835Z,100022.09
2022-09-20T20:06:43.656Z,100017.84
2022-09-20T20:10:15.389Z,100024.78
2022-09-20T20:12:08.789Z,100022.25